createdAt,value
2017-04-13T00:00:45.142Z,1005.29
2017-04-13T00:01:33.326Z,1005.31
2017-04-13T00:02:21.203Z,1005.37
2017-04-13T00:03:15.236Z,1005.35
2017-04-13T00:04:09.284Z,1005.39
2017-04-13T00:04:58.271Z,1005.40
2017-04-13T00:05:52.301Z,1005.38
2017-04-13T00:06:41.450Z,1005.41
2017-04-13T00:07:29.430Z,1005.34
2017-04-13T00:08:24.417Z,1005.37
2017-04-13T00:09:12.498Z,1005.36
2017-04-13T00:10:00.465Z,1005.36
2017-04-13T00:10:49.575Z,1005.34
2017-04-13T00:11:38.636Z,1005.35
2017-04-13T00:12:26.665Z,1005.30
2017-04-13T00:13:20.698Z,1005.29
2017-04-13T00:14:15.756Z,1005.31
2017-04-13T00:15:09.749Z,1005.31
2017-04-13T00:16:04.842Z,1005.29
2017-04-13T00:16:58.840Z,1005.28
2017-04-13T00:17:47.905Z,1005.25
2017-04-13T00:18:35.915Z,1005.25
2017-04-13T00:19:25.045Z,1005.25
2017-04-13T00:20:20.446Z,1005.27
2017-04-13T00:21:13.995Z,1005.25
2017-04-13T00:22:02.051Z,1005.31
2017-04-13T00:22:56.046Z,1005.29
2017-04-13T00:23:45.127Z,1005.32
2017-04-13T00:24:33.119Z,1005.32
2017-04-13T00:25:27.218Z,1005.30
2017-04-13T00:26:21.232Z,1005.31
2017-04-13T00:27:10.221Z,1005.32
2017-04-13T00:28:04.319Z,1005.34
2017-04-13T00:28:52.342Z,1005.35
2017-04-13T00:29:40.359Z,1005.37
2017-04-13T00:30:28.433Z,1005.36
2017-04-13T00:31:22.440Z,1005.36
2017-04-13T00:32:16.485Z,1005.31
2017-04-13T00:33:16.752Z,1005.30
2017-04-13T00:34:10.545Z,1005.34
2017-04-13T00:34:59.583Z,1005.28
2017-04-13T00:35:54.592Z,1005.32
2017-04-13T00:36:42.635Z,1005.27
2017-04-13T00:37:30.643Z,1005.30
2017-04-13T00:38:30.770Z,1005.24
2017-04-13T00:39:24.748Z,1005.26
2017-04-13T00:40:20.248Z,1005.25
2017-04-13T00:41:13.823Z,1005.25
2017-04-13T00:42:07.851Z,1005.19
2017-04-13T00:43:01.878Z,1005.24
2017-04-13T00:43:55.934Z,1005.18
2017-04-13T00:44:44.995Z,1005.19
2017-04-13T00:45:39.034Z,1005.11
2017-04-13T00:46:33.005Z,1005.16
2017-04-13T00:47:27.084Z,1005.19
2017-04-13T00:48:21.123Z,1005.20
2017-04-13T00:49:15.207Z,1005.18
2017-04-13T00:50:04.178Z,1005.17
2017-04-13T00:50:59.220Z,1005.17
2017-04-13T00:51:48.249Z,1005.15
2017-04-13T00:52:42.437Z,1005.16
2017-04-13T00:53:31.344Z,1005.16
2017-04-13T00:54:20.440Z,1005.18
2017-04-13T00:55:09.406Z,1005.16
2017-04-13T00:56:09.420Z,1005.23
2017-04-13T00:56:58.415Z,1005.23
2017-04-13T00:57:52.516Z,1005.20
2017-04-13T00:58:46.517Z,1005.17
2017-04-13T00:59:35.810Z,1005.14
2017-04-13T01:00:30.646Z,1005.11
2017-04-13T01:01:24.680Z,1005.19
2017-04-13T01:02:12.729Z,1005.16
2017-04-13T01:03:01.750Z,1005.12
2017-04-13T01:03:56.769Z,1005.14
2017-04-13T01:04:45.949Z,1005.14
2017-04-13T01:05:39.816Z,1005.11
2017-04-13T01:06:28.839Z,1005.08
2017-04-13T01:07:16.933Z,1005.13
2017-04-13T01:08:05.016Z,1005.04
2017-04-13T01:08:53.973Z,1005.09
2017-04-13T01:09:43.040Z,1005.05
2017-04-13T01:10:32.060Z,1005.07
2017-04-13T01:11:21.099Z,1005.06
2017-04-13T01:12:16.128Z,1005.03
2017-04-13T01:13:04.179Z,1005.03
2017-04-13T01:13:53.241Z,1005.02
2017-04-13T01:14:42.243Z,1005.02
2017-04-13T01:15:30.252Z,1005.06
2017-04-13T01:16:19.362Z,1005.07
2017-04-13T01:17:08.367Z,1005.04
2017-04-13T01:17:56.449Z,1005.01
2017-04-13T01:18:51.479Z,1005.01
2017-04-13T01:19:45.459Z,1005.05
2017-04-13T01:20:33.566Z,1005.01
2017-04-13T01:21:27.609Z,1005.03
2017-04-13T01:22:15.573Z,1005.04
2017-04-13T01:23:03.676Z,1005.03
2017-04-13T01:23:51.698Z,1005.02
2017-04-13T01:24:45.713Z,1005.04
2017-04-13T01:25:33.736Z,1005.02
2017-04-13T01:26:22.782Z,1004.99
2017-04-13T01:27:11.165Z,1005.02
2017-04-13T01:28:04.864Z,1005.02
2017-04-13T01:28:52.916Z,1005.00
2017-04-13T01:29:46.967Z,1005.03
2017-04-13T01:30:34.940Z,1005.00
2017-04-13T01:31:24.034Z,1005.02
2017-04-13T01:32:12.047Z,1005.05
2017-04-13T01:33:06.040Z,1005.04
2017-04-13T01:33:55.124Z,1005.04
2017-04-13T01:34:55.143Z,1005.07
2017-04-13T01:35:49.144Z,1005.07
2017-04-13T01:36:38.239Z,1005.09
2017-04-13T01:37:32.396Z,1005.10
2017-04-13T01:38:21.264Z,1005.09
2017-04-13T01:39:09.346Z,1005.11
2017-04-13T01:39:58.374Z,1005.07
2017-04-13T01:40:46.427Z,1005.06
2017-04-13T01:41:34.450Z,1005.07
2017-04-13T01:42:22.484Z,1005.06
2017-04-13T01:43:23.519Z,1005.07
2017-04-13T01:44:24.505Z,1005.10
2017-04-13T01:45:13.557Z,1005.13
2017-04-13T01:46:02.615Z,1005.15
2017-04-13T01:46:50.633Z,1005.11
2017-04-13T01:47:44.668Z,1005.09
2017-04-13T01:48:38.709Z,1005.06
2017-04-13T01:49:26.747Z,1005.09
2017-04-13T01:50:21.339Z,1005.14
2017-04-13T01:51:08.836Z,1005.15
2017-04-13T01:52:02.846Z,1005.11
2017-04-13T01:52:51.914Z,1005.14
2017-04-13T01:53:40.027Z,1005.12
2017-04-13T01:54:28.984Z,1005.16
2017-04-13T01:55:17.090Z,1005.16
2017-04-13T01:56:12.039Z,1005.14
2017-04-13T01:57:12.036Z,1005.16
2017-04-13T01:58:07.152Z,1005.17
2017-04-13T01:58:56.148Z,1005.18
2017-04-13T01:59:45.180Z,1005.16
2017-04-13T02:00:39.213Z,1005.09
2017-04-13T02:01:33.223Z,1005.10
2017-04-13T02:02:28.276Z,1005.12
2017-04-13T02:03:22.299Z,1005.14
2017-04-13T02:04:10.319Z,1005.15
2017-04-13T02:04:58.397Z,1005.15
2017-04-13T02:05:52.484Z,1005.23
2017-04-13T02:06:41.449Z,1005.21
2017-04-13T02:07:41.515Z,1005.19
2017-04-13T02:08:29.531Z,1005.19
2017-04-13T02:09:18.628Z,1005.19
2017-04-13T02:10:12.695Z,1005.19
2017-04-13T02:11:06.614Z,1005.17
2017-04-13T02:12:01.682Z,1005.16
2017-04-13T02:12:56.657Z,1005.20
2017-04-13T02:13:50.734Z,1005.17
2017-04-13T02:14:44.850Z,1005.19
2017-04-13T02:15:33.834Z,1005.21
2017-04-13T02:16:33.831Z,1005.23
2017-04-13T02:17:27.848Z,1005.20
2017-04-13T02:18:22.906Z,1005.13
2017-04-13T02:19:11.966Z,1005.14
2017-04-13T02:20:01.364Z,1005.16
2017-04-13T02:20:49.037Z,1005.19
2017-04-13T02:21:43.049Z,1005.19
2017-04-13T02:22:32.121Z,1005.19
2017-04-13T02:23:26.130Z,1005.22
2017-04-13T02:24:20.186Z,1005.17
2017-04-13T02:25:14.235Z,1005.19
2017-04-13T02:26:03.263Z,1005.22
2017-04-13T02:26:51.261Z,1005.19
2017-04-13T02:27:45.345Z,1005.26
2017-04-13T02:28:33.335Z,1005.26
2017-04-13T02:29:27.313Z,1005.23
2017-04-13T02:30:21.802Z,1005.20
2017-04-13T02:31:15.437Z,1005.25
2017-04-13T02:32:04.520Z,1005.23
2017-04-13T02:33:04.519Z,1005.18
2017-04-13T02:33:53.530Z,1005.27
2017-04-13T02:34:47.548Z,1005.26
2017-04-13T02:35:41.614Z,1005.24
2017-04-13T02:36:41.663Z,1005.21
2017-04-13T02:37:30.645Z,1005.24
2017-04-13T02:38:19.711Z,1005.27
2017-04-13T02:39:13.855Z,1005.25
2017-04-13T02:40:02.808Z,1005.21
2017-04-13T02:40:51.890Z,1005.22
2017-04-13T02:41:45.852Z,1005.22
2017-04-13T02:42:33.916Z,1005.17
2017-04-13T02:43:33.943Z,1005.20
2017-04-13T02:44:21.940Z,1005.12
2017-04-13T02:45:10.036Z,1005.14
2017-04-13T02:46:04.084Z,1005.14
2017-04-13T02:46:52.033Z,1005.12
2017-04-13T02:47:46.138Z,1005.11
2017-04-13T02:48:40.157Z,1005.10
2017-04-13T02:49:34.165Z,1005.10
2017-04-13T02:50:29.260Z,1005.09
2017-04-13T02:51:17.303Z,1005.07
2017-04-13T02:52:06.276Z,1005.08
2017-04-13T02:53:00.323Z,1005.08
2017-04-13T02:54:00.306Z,1005.11
2017-04-13T02:54:54.440Z,1005.09
2017-04-13T02:55:48.438Z,1005.08
2017-04-13T02:56:42.509Z,1005.08
2017-04-13T02:57:37.510Z,1005.10
2017-04-13T02:58:31.529Z,1005.09
2017-04-13T02:59:25.570Z,1005.08
2017-04-13T03:00:13.623Z,1005.07
2017-04-13T03:01:07.617Z,1005.07
2017-04-13T03:02:07.635Z,1005.09
2017-04-13T03:02:55.724Z,1005.09
2017-04-13T03:03:56.744Z,1005.12
2017-04-13T03:04:50.751Z,1005.16
2017-04-13T03:05:50.774Z,1005.12
2017-04-13T03:06:45.832Z,1005.16
2017-04-13T03:07:45.862Z,1005.18
2017-04-13T03:08:33.913Z,1005.18
2017-04-13T03:09:22.925Z,1005.19
2017-04-13T03:10:24.378Z,1005.16
2017-04-13T03:11:18.009Z,1005.16
2017-04-13T03:12:13.001Z,1005.10
2017-04-13T03:13:07.125Z,1005.10
2017-04-13T03:14:01.018Z,1005.10
2017-04-13T03:14:55.141Z,1005.06
2017-04-13T03:15:44.142Z,1005.04
2017-04-13T03:16:33.162Z,1005.06
2017-04-13T03:17:22.268Z,1005.06
2017-04-13T03:18:22.218Z,1005.05
2017-04-13T03:19:16.301Z,1005.09
2017-04-13T03:20:10.316Z,1005.09
2017-04-13T03:21:04.328Z,1005.08
2017-04-13T03:21:58.419Z,1005.12
2017-04-13T03:22:47.422Z,1005.08
2017-04-13T03:23:41.467Z,1005.09
2017-04-13T03:24:36.537Z,1005.15
2017-04-13T03:25:36.537Z,1005.14
2017-04-13T03:26:30.567Z,1005.13
2017-04-13T03:27:30.558Z,1005.19
2017-04-13T03:28:25.618Z,1005.18
2017-04-13T03:29:14.842Z,1005.21
2017-04-13T03:30:09.651Z,1005.20
2017-04-13T03:30:58.723Z,1005.14
2017-04-13T03:31:47.771Z,1005.20
2017-04-13T03:32:42.745Z,1005.17
2017-04-13T03:33:31.801Z,1005.17
2017-04-13T03:34:26.838Z,1005.18
2017-04-13T03:35:15.957Z,1005.15
2017-04-13T03:36:09.927Z,1005.12
2017-04-13T03:36:58.955Z,1005.15
2017-04-13T03:37:48.037Z,1005.08
2017-04-13T03:38:48.021Z,1005.12
2017-04-13T03:39:37.075Z,1005.12
2017-04-13T03:40:25.556Z,1005.10
2017-04-13T03:41:20.166Z,1005.12
2017-04-13T03:42:09.200Z,1005.11
2017-04-13T03:42:58.243Z,1005.06
2017-04-13T03:43:47.256Z,1005.09
2017-04-13T03:44:36.391Z,1005.10
2017-04-13T03:45:30.337Z,1005.03
2017-04-13T03:46:24.375Z,1005.07
2017-04-13T03:47:24.361Z,1005.07
2017-04-13T03:48:12.438Z,1005.06
2017-04-13T03:49:01.444Z,1005.07
2017-04-13T03:50:01.526Z,1005.10
2017-04-13T03:50:50.535Z,1005.08
2017-04-13T03:51:39.545Z,1005.09
2017-04-13T03:52:27.594Z,1005.08
2017-04-13T03:53:21.665Z,1005.06
2017-04-13T03:54:15.619Z,1005.07
2017-04-13T03:55:04.695Z,1005.05
2017-04-13T03:55:58.718Z,1005.06
2017-04-13T03:56:47.783Z,1005.09
2017-04-13T03:57:41.831Z,1005.09
2017-04-13T03:58:41.834Z,1005.08
2017-04-13T03:59:41.862Z,1005.06
2017-04-13T04:00:30.925Z,1005.06
2017-04-13T04:01:25.966Z,1005.05
2017-04-13T04:02:14.085Z,1005.01
2017-04-13T04:03:02.017Z,1005.03
2017-04-13T04:03:51.064Z,1005.04
2017-04-13T04:04:45.309Z,1005.10
2017-04-13T04:05:34.145Z,1005.07
2017-04-13T04:06:22.148Z,1005.09
2017-04-13T04:07:10.240Z,1005.06
2017-04-13T04:07:59.240Z,1005.04
2017-04-13T04:08:47.306Z,1005.01
2017-04-13T04:09:35.318Z,1005.04
2017-04-13T04:10:30.363Z,1005.05
2017-04-13T04:11:30.424Z,1005.07
2017-04-13T04:12:24.457Z,1005.05
2017-04-13T04:13:24.453Z,1005.03
2017-04-13T04:14:19.500Z,1005.02
2017-04-13T04:15:14.558Z,1005.04
2017-04-13T04:16:15.550Z,1005.03
2017-04-13T04:17:16.543Z,1005.07
2017-04-13T04:18:05.620Z,1005.06
2017-04-13T04:18:59.645Z,1005.03
2017-04-13T04:19:59.661Z,1005.09
2017-04-13T04:20:54.737Z,1005.07
2017-04-13T04:22:00.733Z,1005.07
2017-04-13T04:22:48.744Z,1005.10
2017-04-13T04:23:48.786Z,1005.11
2017-04-13T04:24:37.864Z,1005.12
2017-04-13T04:25:25.882Z,1005.14
2017-04-13T04:26:19.917Z,1005.11
2017-04-13T04:27:07.975Z,1005.10
2017-04-13T04:28:02.942Z,1005.09
2017-04-13T04:28:57.009Z,1005.13
2017-04-13T04:29:45.298Z,1005.12
2017-04-13T04:30:39.090Z,1005.13
2017-04-13T04:31:27.113Z,1005.10
2017-04-13T04:32:16.302Z,1005.10
2017-04-13T04:33:16.391Z,1005.13
2017-04-13T04:34:05.234Z,1005.14
2017-04-13T04:34:54.343Z,1005.13
2017-04-13T04:35:48.319Z,1005.10
2017-04-13T04:36:48.344Z,1005.13
2017-04-13T04:37:42.389Z,1005.16
2017-04-13T04:38:37.430Z,1005.17
2017-04-13T04:39:31.433Z,1005.19
2017-04-13T04:40:20.506Z,1005.18
2017-04-13T04:41:21.545Z,1005.22
2017-04-13T04:42:10.554Z,1005.18
2017-04-13T04:42:58.651Z,1005.22
2017-04-13T04:43:52.626Z,1005.18
2017-04-13T04:44:47.637Z,1005.15
2017-04-13T04:45:47.717Z,1005.15
2017-04-13T04:46:41.763Z,1005.17
2017-04-13T04:47:29.756Z,1005.16
2017-04-13T04:48:18.820Z,1005.15
2017-04-13T04:49:13.860Z,1005.19
2017-04-13T04:50:07.895Z,1005.19
2017-04-13T04:50:55.945Z,1005.19
2017-04-13T04:51:44.918Z,1005.16
2017-04-13T04:52:33.946Z,1005.20
2017-04-13T04:53:22.993Z,1005.21
2017-04-13T04:54:23.057Z,1005.20
2017-04-13T04:55:12.075Z,1005.23
2017-04-13T04:56:06.132Z,1005.29
2017-04-13T04:56:55.201Z,1005.28
2017-04-13T04:57:56.159Z,1005.29
2017-04-13T04:58:45.228Z,1005.33
2017-04-13T04:59:33.294Z,1005.33
2017-04-13T05:00:22.387Z,1005.29
2017-04-13T05:01:11.369Z,1005.34
2017-04-13T05:01:59.423Z,1005.35
2017-04-13T05:02:53.498Z,1005.36
2017-04-13T05:03:47.470Z,1005.40
2017-04-13T05:04:36.596Z,1005.38
2017-04-13T05:05:30.603Z,1005.40
2017-04-13T05:06:30.621Z,1005.41
2017-04-13T05:07:24.598Z,1005.46
2017-04-13T05:08:13.649Z,1005.45
2017-04-13T05:09:08.622Z,1005.41
2017-04-13T05:10:02.767Z,1005.43
2017-04-13T05:10:56.723Z,1005.42
2017-04-13T05:11:45.827Z,1005.43
2017-04-13T05:12:34.858Z,1005.46
2017-04-13T05:13:29.891Z,1005.44
2017-04-13T05:14:18.926Z,1005.47
2017-04-13T05:15:12.980Z,1005.46
2017-04-13T05:16:00.979Z,1005.52
2017-04-13T05:17:01.182Z,1005.49
2017-04-13T05:17:56.025Z,1005.49
2017-04-13T05:18:45.046Z,1005.51
2017-04-13T05:19:34.114Z,1005.50
2017-04-13T05:20:22.191Z,1005.50
2017-04-13T05:21:16.176Z,1005.53
2017-04-13T05:22:04.317Z,1005.52
2017-04-13T05:23:04.242Z,1005.51
2017-04-13T05:23:58.337Z,1005.51
2017-04-13T05:24:58.379Z,1005.53
2017-04-13T05:25:52.338Z,1005.58
2017-04-13T05:26:47.393Z,1005.59
2017-04-13T05:27:47.418Z,1005.57
2017-04-13T05:28:35.478Z,1005.60
2017-04-13T05:29:29.551Z,1005.59
2017-04-13T05:30:17.527Z,1005.65
2017-04-13T05:31:17.556Z,1005.67
2017-04-13T05:32:12.599Z,1005.66
2017-04-13T05:33:07.677Z,1005.67
2017-04-13T05:33:55.673Z,1005.68
2017-04-13T05:34:50.743Z,1005.67
2017-04-13T05:35:39.790Z,1005.71
2017-04-13T05:36:27.875Z,1005.70
2017-04-13T05:37:16.839Z,1005.68
2017-04-13T05:38:10.932Z,1005.73
2017-04-13T05:39:10.939Z,1005.72
2017-04-13T05:40:04.986Z,1005.73
2017-04-13T05:40:54.180Z,1005.77
2017-04-13T05:41:48.014Z,1005.71
2017-04-13T05:42:42.005Z,1005.71
2017-04-13T05:43:37.083Z,1005.68
2017-04-13T05:44:32.151Z,1005.74
2017-04-13T05:45:26.149Z,1005.76
2017-04-13T05:46:20.150Z,1005.72
2017-04-13T05:47:08.233Z,1005.74
2017-04-13T05:48:02.302Z,1005.73
2017-04-13T05:48:56.313Z,1005.76
2017-04-13T05:49:51.332Z,1005.81
2017-04-13T05:50:45.338Z,1005.80
2017-04-13T05:51:39.428Z,1005.84
2017-04-13T05:52:27.403Z,1005.87
2017-04-13T05:53:27.474Z,1005.85
2017-04-13T05:54:15.600Z,1005.83
2017-04-13T05:55:04.532Z,1005.86
2017-04-13T05:55:52.615Z,1005.81
2017-04-13T05:56:40.657Z,1005.83
2017-04-13T05:57:29.717Z,1005.85
2017-04-13T05:58:23.724Z,1005.87
2017-04-13T05:59:17.743Z,1005.88
2017-04-13T06:00:07.042Z,1005.94
2017-04-13T06:00:55.932Z,1005.89
2017-04-13T06:01:49.915Z,1005.96
2017-04-13T06:02:39.020Z,1005.95
2017-04-13T06:03:27.957Z,1005.93
2017-04-13T06:04:16.027Z,1005.93
2017-04-13T06:05:11.040Z,1005.96
2017-04-13T06:05:59.226Z,1005.97
2017-04-13T06:06:53.101Z,1005.96
2017-04-13T06:07:53.197Z,1005.97
2017-04-13T06:08:41.263Z,1005.96
2017-04-13T06:09:35.257Z,1005.97
2017-04-13T06:10:24.333Z,1006.01
2017-04-13T06:11:18.263Z,1006.06
2017-04-13T06:12:06.347Z,1006.04
2017-04-13T06:12:55.445Z,1006.00
2017-04-13T06:13:44.424Z,1006.02
2017-04-13T06:14:38.440Z,1006.05
2017-04-13T06:15:33.542Z,1006.05
2017-04-13T06:16:22.543Z,1006.00
2017-04-13T06:17:10.548Z,1006.00
2017-04-13T06:17:59.641Z,1005.99
2017-04-13T06:18:53.649Z,1006.04
2017-04-13T06:19:47.692Z,1006.01
2017-04-13T06:20:36.730Z,1006.05
2017-04-13T06:21:24.768Z,1006.07
2017-04-13T06:22:13.867Z,1006.07
2017-04-13T06:23:02.892Z,1006.07
2017-04-13T06:23:57.935Z,1006.08
2017-04-13T06:24:46.404Z,1006.11
2017-04-13T06:25:34.010Z,1006.10
2017-04-13T06:26:22.134Z,1006.12
2017-04-13T06:27:11.097Z,1006.13
2017-04-13T06:28:06.183Z,1006.13
2017-04-13T06:29:12.167Z,1006.15
2017-04-13T06:30:00.182Z,1006.14
2017-04-13T06:30:49.224Z,1006.11
2017-04-13T06:31:37.276Z,1006.14
2017-04-13T06:32:26.326Z,1006.19
2017-04-13T06:33:20.360Z,1006.17
2017-04-13T06:34:09.363Z,1006.20
2017-04-13T06:35:03.444Z,1006.27
2017-04-13T06:35:58.446Z,1006.26
2017-04-13T06:36:46.537Z,1006.25
2017-04-13T06:37:40.541Z,1006.28
2017-04-13T06:38:29.571Z,1006.33
2017-04-13T06:39:17.634Z,1006.27
2017-04-13T06:40:11.652Z,1006.33
2017-04-13T06:41:00.690Z,1006.35
2017-04-13T06:41:54.835Z,1006.34
2017-04-13T06:42:48.783Z,1006.34
2017-04-13T06:43:37.892Z,1006.39
2017-04-13T06:44:25.813Z,1006.37
2017-04-13T06:45:25.930Z,1006.35
2017-04-13T06:46:20.913Z,1006.39
2017-04-13T06:47:15.999Z,1006.41
2017-04-13T06:48:11.053Z,1006.34
2017-04-13T06:49:05.060Z,1006.38
2017-04-13T06:49:54.108Z,1006.40
2017-04-13T06:50:42.134Z,1006.40
2017-04-13T06:51:31.197Z,1006.41
2017-04-13T06:52:32.289Z,1006.40
2017-04-13T06:53:26.270Z,1006.50
2017-04-13T06:54:27.264Z,1006.52
2017-04-13T06:55:21.307Z,1006.53
2017-04-13T06:56:15.371Z,1006.47
2017-04-13T06:57:09.360Z,1006.45
2017-04-13T06:57:57.495Z,1006.49
2017-04-13T06:58:51.504Z,1006.50
2017-04-13T06:59:45.942Z,1006.55
2017-04-13T07:00:40.537Z,1006.48
2017-04-13T07:01:34.605Z,1006.54
2017-04-13T07:02:28.668Z,1006.46
2017-04-13T07:03:22.683Z,1006.50
2017-04-13T07:04:16.732Z,1006.57
2017-04-13T07:05:05.806Z,1006.54
2017-04-13T07:05:53.840Z,1006.56
2017-04-13T07:06:42.832Z,1006.55
2017-04-13T07:07:36.864Z,1006.62
2017-04-13T07:08:24.940Z,1006.63
2017-04-13T07:09:19.977Z,1006.66
2017-04-13T07:10:15.026Z,1006.60
2017-04-13T07:11:10.082Z,1006.64
2017-04-13T07:11:59.112Z,1006.61
2017-04-13T07:12:47.177Z,1006.60
2017-04-13T07:13:41.225Z,1006.63
2017-04-13T07:14:35.183Z,1006.60
2017-04-13T07:15:30.271Z,1006.57
2017-04-13T07:16:19.304Z,1006.57
2017-04-13T07:17:07.338Z,1006.62
2017-04-13T07:17:56.353Z,1006.63
2017-04-13T07:18:50.443Z,1006.63
2017-04-13T07:19:38.451Z,1006.64
2017-04-13T07:20:32.547Z,1006.61
2017-04-13T07:21:26.565Z,1006.61
2017-04-13T07:22:15.541Z,1006.64
2017-04-13T07:23:04.646Z,1006.64
2017-04-13T07:23:53.628Z,1006.65
2017-04-13T07:24:48.015Z,1006.62
2017-04-13T07:25:42.718Z,1006.63
2017-04-13T07:26:36.829Z,1006.71
2017-04-13T07:27:36.856Z,1006.71
2017-04-13T07:28:25.908Z,1006.75
2017-04-13T07:29:15.006Z,1006.73
2017-04-13T07:30:03.942Z,1006.74
2017-04-13T07:30:58.976Z,1006.83
2017-04-13T07:31:53.049Z,1006.79
2017-04-13T07:32:47.038Z,1006.82
2017-04-13T07:33:41.107Z,1006.89
2017-04-13T07:34:35.166Z,1006.89
2017-04-13T07:35:29.235Z,1006.82
2017-04-13T07:36:23.254Z,1006.92
2017-04-13T07:37:23.231Z,1006.86
2017-04-13T07:38:11.325Z,1006.89
2017-04-13T07:39:00.312Z,1006.88
2017-04-13T07:39:48.355Z,1006.90
2017-04-13T07:40:37.447Z,1006.90
2017-04-13T07:41:31.446Z,1006.93
2017-04-13T07:42:26.500Z,1007.04
2017-04-13T07:43:14.556Z,1007.01
2017-04-13T07:44:08.622Z,1007.06
2017-04-13T07:45:02.736Z,1007.08
2017-04-13T07:45:56.681Z,1007.06
2017-04-13T07:46:45.696Z,1007.04
2017-04-13T07:47:33.799Z,1007.06
2017-04-13T07:48:22.877Z,1006.99
2017-04-13T07:49:11.839Z,1007.06
2017-04-13T07:50:06.861Z,1007.05
2017-04-13T07:51:00.919Z,1007.15
2017-04-13T07:51:49.998Z,1007.07
2017-04-13T07:52:38.007Z,1007.12
2017-04-13T07:53:33.070Z,1007.11
2017-04-13T07:54:22.116Z,1007.11
2017-04-13T07:55:16.123Z,1007.10
2017-04-13T07:56:05.180Z,1007.13
2017-04-13T07:56:59.284Z,1007.13
2017-04-13T07:57:53.247Z,1007.15
2017-04-13T07:58:48.272Z,1007.15
2017-04-13T07:59:37.362Z,1007.25
2017-04-13T08:00:31.357Z,1007.25
2017-04-13T08:01:20.456Z,1007.26
2017-04-13T08:02:09.463Z,1007.19
2017-04-13T08:02:58.563Z,1007.23
2017-04-13T08:03:46.544Z,1007.27
2017-04-13T08:04:40.615Z,1007.32
2017-04-13T08:05:29.648Z,1007.26
2017-04-13T08:06:23.647Z,1007.22
2017-04-13T08:07:12.740Z,1007.33
2017-04-13T08:08:06.767Z,1007.30
2017-04-13T08:09:00.826Z,1007.36
2017-04-13T08:09:49.889Z,1007.42
2017-04-13T08:10:38.923Z,1007.39
2017-04-13T08:11:27.946Z,1007.40
2017-04-13T08:12:16.972Z,1007.35
2017-04-13T08:13:11.092Z,1007.42
2017-04-13T08:14:06.023Z,1007.45
2017-04-13T08:15:00.090Z,1007.44
2017-04-13T08:15:49.143Z,1007.49
2017-04-13T08:16:44.152Z,1007.44
2017-04-13T08:17:38.219Z,1007.42
2017-04-13T08:18:27.220Z,1007.38
2017-04-13T08:19:16.348Z,1007.35
2017-04-13T08:20:16.366Z,1007.37
2017-04-13T08:21:04.374Z,1007.51
2017-04-13T08:21:59.427Z,1007.49
2017-04-13T08:22:48.482Z,1007.46
2017-04-13T08:23:37.602Z,1007.51
2017-04-13T08:24:25.553Z,1007.48
2017-04-13T08:25:14.590Z,1007.52
2017-04-13T08:26:03.687Z,1007.49
2017-04-13T08:26:58.687Z,1007.56
2017-04-13T08:27:47.769Z,1007.58
2017-04-13T08:28:36.774Z,1007.58
2017-04-13T08:29:31.828Z,1007.61
2017-04-13T08:30:31.858Z,1007.62
2017-04-13T08:31:19.881Z,1007.61
2017-04-13T08:32:07.926Z,1007.66
2017-04-13T08:33:02.012Z,1007.58
2017-04-13T08:33:50.117Z,1007.66
2017-04-13T08:34:44.069Z,1007.64
2017-04-13T08:35:44.101Z,1007.68
2017-04-13T08:36:33.158Z,1007.70
2017-04-13T08:37:28.149Z,1007.68
2017-04-13T08:38:22.315Z,1007.66
2017-04-13T08:39:10.289Z,1007.62
2017-04-13T08:39:59.372Z,1007.66
2017-04-13T08:40:53.354Z,1007.67
2017-04-13T08:41:47.454Z,1007.62
2017-04-13T08:42:36.467Z,1007.61
2017-04-13T08:43:30.518Z,1007.60
2017-04-13T08:44:25.581Z,1007.65
2017-04-13T08:45:13.595Z,1007.70
2017-04-13T08:46:02.689Z,1007.68
2017-04-13T08:46:56.672Z,1007.70
2017-04-13T08:47:51.736Z,1007.64
2017-04-13T08:48:45.852Z,1007.65
2017-04-13T08:49:39.823Z,1007.72
2017-04-13T08:50:28.813Z,1007.74
2017-04-13T08:51:17.941Z,1007.80
2017-04-13T08:52:05.943Z,1007.75
2017-04-13T08:52:59.990Z,1007.69
2017-04-13T08:53:54.062Z,1007.69
2017-04-13T08:54:42.173Z,1007.67
2017-04-13T08:55:36.128Z,1007.74
2017-04-13T08:56:24.149Z,1007.70
2017-04-13T08:57:18.237Z,1007.74
2017-04-13T08:58:06.275Z,1007.75
2017-04-13T08:58:54.337Z,1007.74
2017-04-13T08:59:48.735Z,1007.68
2017-04-13T09:00:36.421Z,1007.75
2017-04-13T09:01:25.463Z,1007.83
2017-04-13T09:02:20.612Z,1007.76
2017-04-13T09:03:09.534Z,1007.89
2017-04-13T09:04:04.608Z,1007.86
2017-04-13T09:04:53.667Z,1007.88
2017-04-13T09:05:47.686Z,1007.88
2017-04-13T09:06:41.744Z,1007.78
2017-04-13T09:07:35.726Z,1007.81
2017-04-13T09:08:24.853Z,1007.81
2017-04-13T09:09:13.887Z,1007.79
2017-04-13T09:10:13.933Z,1007.81
2017-04-13T09:11:01.938Z,1007.87
2017-04-13T09:12:02.289Z,1007.89
2017-04-13T09:12:56.033Z,1007.90
2017-04-13T09:13:45.035Z,1007.87
2017-04-13T09:14:34.130Z,1007.93
2017-04-13T09:15:29.141Z,1007.94
2017-04-13T09:16:17.294Z,1007.94
2017-04-13T09:17:06.526Z,1007.86
2017-04-13T09:17:55.326Z,1007.90
2017-04-13T09:18:50.359Z,1007.88
2017-04-13T09:19:39.388Z,1007.88
2017-04-13T09:20:33.430Z,1007.92
2017-04-13T09:21:27.501Z,1007.92
2017-04-13T09:22:15.535Z,1007.96
2017-04-13T09:23:04.575Z,1007.89
2017-04-13T09:23:53.654Z,1007.97
2017-04-13T09:24:42.702Z,1008.00
2017-04-13T09:25:36.750Z,1008.10
2017-04-13T09:26:30.791Z,1008.00
2017-04-13T09:27:25.823Z,1008.00
2017-04-13T09:28:19.869Z,1007.99
2017-04-13T09:29:13.986Z,1008.04
2017-04-13T09:30:07.933Z,1008.10
2017-04-13T09:31:02.007Z,1008.09
2017-04-13T09:31:50.075Z,1008.05
2017-04-13T09:32:38.046Z,1008.00
2017-04-13T09:33:32.095Z,1007.90
2017-04-13T09:34:21.210Z,1007.94
2017-04-13T09:35:10.213Z,1007.93
2017-04-13T09:36:04.256Z,1007.92
2017-04-13T09:36:53.328Z,1007.94
2017-04-13T09:37:47.364Z,1007.92
2017-04-13T09:38:35.435Z,1007.92
2017-04-13T09:39:35.482Z,1007.88
2017-04-13T09:40:29.540Z,1007.95
2017-04-13T09:41:18.543Z,1008.01
2017-04-13T09:42:07.548Z,1008.01
2017-04-13T09:42:56.646Z,1007.95
2017-04-13T09:43:56.681Z,1007.86
2017-04-13T09:44:51.682Z,1007.76
2017-04-13T09:45:40.768Z,1007.76
2017-04-13T09:46:28.856Z,1007.76
2017-04-13T09:47:22.859Z,1007.73
2017-04-13T09:48:16.912Z,1007.82
2017-04-13T09:49:16.948Z,1007.76
2017-04-13T09:50:10.998Z,1007.75
2017-04-13T09:51:11.043Z,1007.82
2017-04-13T09:52:00.048Z,1007.88
2017-04-13T09:52:48.112Z,1007.77
2017-04-13T09:53:37.194Z,1007.64
2017-04-13T09:54:26.242Z,1007.69
2017-04-13T09:55:20.678Z,1007.70
2017-04-13T09:56:09.283Z,1007.75
2017-04-13T09:56:57.325Z,1007.74
2017-04-13T09:57:46.427Z,1007.70
2017-04-13T09:58:41.444Z,1007.73
2017-04-13T09:59:35.511Z,1007.75
2017-04-13T10:00:29.551Z,1007.89
2017-04-13T10:01:17.585Z,1007.97
2017-04-13T10:02:06.620Z,1008.02
2017-04-13T10:02:55.665Z,1008.05
2017-04-13T10:03:44.698Z,1008.14
2017-04-13T10:04:32.734Z,1008.08
2017-04-13T10:05:26.831Z,1008.16
2017-04-13T10:06:14.875Z,1008.06
2017-04-13T10:07:09.912Z,1008.06
2017-04-13T10:07:58.901Z,1007.92
2017-04-13T10:08:47.123Z,1007.82
2017-04-13T10:09:36.055Z,1007.83
2017-04-13T10:10:25.106Z,1007.78
2017-04-13T10:11:19.088Z,1007.70
2017-04-13T10:12:07.137Z,1007.73
2017-04-13T10:13:01.246Z,1007.73
2017-04-13T10:13:50.313Z,1007.75
2017-04-13T10:14:39.312Z,1007.74
2017-04-13T10:15:33.350Z,1007.77
2017-04-13T10:16:22.374Z,1007.79
2017-04-13T10:17:22.438Z,1007.87
2017-04-13T10:18:17.474Z,1007.96
2017-04-13T10:19:06.532Z,1007.92
2017-04-13T10:19:54.503Z,1007.92
2017-04-13T10:20:43.641Z,1007.91
2017-04-13T10:21:32.612Z,1007.88
2017-04-13T10:22:26.636Z,1007.94
2017-04-13T10:23:14.775Z,1008.00
2017-04-13T10:24:03.770Z,1008.07
2017-04-13T10:24:57.846Z,1007.98
2017-04-13T10:25:46.841Z,1008.05
2017-04-13T10:26:34.980Z,1008.13
2017-04-13T10:27:28.963Z,1008.17
2017-04-13T10:28:23.040Z,1008.14
2017-04-13T10:29:17.066Z,1008.15
2017-04-13T10:30:11.176Z,1008.11